Time;durP1;ratioP1;P1;durP2;ratioP2;P2;SDS_P1;SDS_P2;PMS_P1;PMS_P2;Temp;Humidity;BMP_temperature;BMP_pressure;BME280_temperature;BME280_humidity;BME280_pressure;Samples;Min_cycle;Max_cycle;Signal;HPM_P1;HPM_P2
2022/12/04 00:01:19;;;;;;;6.00;3.47;;;;;;;;;;5061599;27;86984;-60
2022/12/04 00:03:47;;;;;;;11.20;5.17;;;;;;;;;;5061988;27;88177;-61
2022/12/04 00:06:16;;;;;;;8.70;3.80;;;;;;;;;;5062786;27;88967;-61
2022/12/04 00:08:44;;;;;;;6.50;3.93;;;;;;;;;;5062723;27;87487;-62
2022/12/04 00:11:14;;;;;;;8.47;5.07;;;;;;;;;;5062243;27;87086;-60
2022/12/04 00:13:42;;;;;;;7.40;3.97;;;;;;;;;;5060961;27;88807;-61
2022/12/04 00:16:11;;;;;;;8.23;4.23;;;;;;;;;;5061076;27;88777;-61
2022/12/04 00:18:40;;;;;;;6.67;4.23;;;;;;;;;;5062807;27;86771;-60
2022/12/04 00:21:08;;;;;;;6.40;4.10;;;;;;;;;;5061987;27;86939;-60
2022/12/04 00:23:37;;;;;;;6.47;4.63;;;;;;;;;;5065618;27;90468;-60
2022/12/04 00:26:06;;;;;;;6.53;4.00;;;;;;;;;;5082644;27;87670;-60
2022/12/04 00:28:35;;;;;;;10.53;4.33;;;;;;;;;;5083101;27;87073;-61
2022/12/04 00:31:05;;;;;;;8.37;4.47;;;;;;;;;;5083023;27;86172;-62
2022/12/04 00:33:33;;;;;;;5.13;3.77;;;;;;;;;;5082107;27;88168;-61
2022/12/04 00:36:02;;;;;;;7.67;3.60;;;;;;;;;;5081989;27;88500;-60
2022/12/04 00:38:30;;;;;;;6.37;4.20;;;;;;;;;;5082290;27;88081;-61
2022/12/04 00:40:59;;;;;;;5.23;3.73;;;;;;;;;;5082471;27;87073;-60
2022/12/04 00:43:27;;;;;;;5.67;3.57;;;;;;;;;;5082267;27;88161;-61
2022/12/04 00:45:57;;;;;;;6.93;4.33;;;;;;;;;;5082473;27;87770;-60
2022/12/04 00:48:26;;;;;;;5.37;2.80;;;;;;;;;;5082108;27;87072;-60
2022/12/04 00:50:54;;;;;;;5.70;3.53;;;;;;;;;;5082019;27;86984;-60
2022/12/04 00:53:22;;;;;;;5.17;3.67;;;;;;;;;;5082277;27;88101;-60
2022/12/04 00:55:51;;;;;;;5.47;3.30;;;;;;;;;;5082794;27;86492;-60
2022/12/04 00:58:19;;;;;;;5.40;3.83;;;;;;;;;;5082299;27;87011;-60
2022/12/04 01:00:47;;;;;;;5.40;3.43;;;;;;;;;;5082095;27;86930;-61
2022/12/04 01:03:17;;;;;;;7.03;3.83;;;;;;;;;;5081328;27;89948;-61
2022/12/04 01:05:46;;;;;;;7.17;3.50;;;;;;;;;;5082038;27;89754;-61
2022/12/04 01:08:14;;;;;;;5.93;3.57;;;;;;;;;;5082582;27;87067;-60
2022/12/04 01:10:42;;;;;;;5.53;3.33;;;;;;;;;;5082388;27;86964;-60
2022/12/04 01:13:11;;;;;;;5.97;4.23;;;;;;;;;;5082511;27;88064;-60
2022/12/04 01:15:39;;;;;;;4.83;3.40;;;;;;;;;;5066831;27;88857;-60
2022/12/04 01:18:08;;;;;;;7.20;3.83;;;;;;;;;;5062380;27;87118;-60
2022/12/04 01:20:37;;;;;;;5.90;3.27;;;;;;;;;;5061783;27;86861;-61
2022/12/04 01:23:06;;;;;;;6.83;3.53;;;;;;;;;;5061440;27;87985;-61
2022/12/04 01:25:34;;;;;;;3.70;2.97;;;;;;;;;;5060950;27;87941;-60
2022/12/04 01:28:02;;;;;;;6.93;3.20;;;;;;;;;;5061019;27;87916;-61
2022/12/04 01:30:31;;;;;;;5.70;3.47;;;;;;;;;;5061354;27;86905;-60
2022/12/04 01:32:59;;;;;;;8.80;3.83;;;;;;;;;;5060211;27;88390;-60
2022/12/04 01:35:27;;;;;;;5.00;2.87;;;;;;;;;;5061225;27;86875;-60
2022/12/04 01:37:57;;;;;;;5.70;3.90;;;;;;;;;;5062007;27;87064;-60
2022/12/04 01:40:25;;;;;;;7.53;4.53;;;;;;;;;;5061686;27;86879;-60
2022/12/04 01:42:53;;;;;;;8.20;3.33;;;;;;;;;;5061309;27;89217;-59
2022/12/04 01:45:38;;;;;;;6.93;3.70;;;;;;;;;;5061476;27;88846;-60
2022/12/04 01:48:09;;;;;;;6.30;2.90;;;;;;;;;;5061137;27;86802;-60
2022/12/04 01:50:37;;;;;;;4.17;2.63;;;;;;;;;;5060932;27;86947;-60
2022/12/04 01:53:07;;;;;;;6.40;3.47;;;;;;;;;;5060701;27;88028;-61
2022/12/04 01:55:35;;;;;;;3.67;3.00;;;;;;;;;;5060781;27;88788;-61
2022/12/04 01:58:03;;;;;;;7.70;4.03;;;;;;;;;;5061087;27;87047;-60
2022/12/04 02:00:32;;;;;;;6.97;3.60;;;;;;;;;;5061552;27;86852;-61
2022/12/04 02:03:00;;;;;;;5.73;3.57;;;;;;;;;;5061591;27;89201;-60
2022/12/04 02:05:28;;;;;;;5.37;3.60;;;;;;;;;;5061496;27;88800;-60
2022/12/04 02:07:57;;;;;;;5.10;3.17;;;;;;;;;;5061662;27;86849;-60
2022/12/04 02:10:29;;;;;;;5.13;3.30;;;;;;;;;;5061872;27;86280;-60
2022/12/04 02:12:59;;;;;;;9.80;4.67;;;;;;;;;;5062130;27;88300;-60
2022/12/04 02:15:29;;;;;;;5.73;3.60;;;;;;;;;;5064430;27;88945;-60
2022/12/04 02:17:58;;;;;;;7.20;3.33;;;;;;;;;;5064297;27;87965;-60
2022/12/04 02:20:29;;;;;;;7.77;3.80;;;;;;;;;;5064377;27;87005;-60
2022/12/04 02:23:06;;;;;;;5.50;3.73;;;;;;;;;;5064319;27;89250;-60
2022/12/04 02:25:38;;;;;;;5.67;3.77;;;;;;;;;;5063834;27;87841;-61
2022/12/04 02:28:10;;;;;;;8.07;3.83;;;;;;;;;;5064080;27;87075;-59
2022/12/04 02:30:40;;;;;;;8.03;4.17;;;;;;;;;;5063620;27;86999;-61
2022/12/04 02:33:10;;;;;;;8.07;4.27;;;;;;;;;;5064622;27;87792;-60
2022/12/04 02:35:40;;;;;;;6.50;3.97;;;;;;;;;;5064263;27;87905;-60
2022/12/04 02:38:11;;;;;;;5.93;3.63;;;;;;;;;;5064251;27;86937;-61
2022/12/04 02:40:40;;;;;;;6.07;3.13;;;;;;;;;;5064201;27;87029;-61
2022/12/04 02:43:10;;;;;;;7.60;4.07;;;;;;;;;;5063787;27;89038;-60
2022/12/04 02:45:39;;;;;;;6.07;4.50;;;;;;;;;;5063956;27;88792;-60
2022/12/04 02:48:07;;;;;;;8.17;3.23;;;;;;;;;;5064141;27;86888;-60
2022/12/04 02:50:36;;;;;;;6.40;3.53;;;;;;;;;;5064231;27;86924;-61
2022/12/04 02:53:06;;;;;;;6.00;3.40;;;;;;;;;;5063238;27;89037;-60
2022/12/04 02:55:35;;;;;;;6.90;3.77;;;;;;;;;;5063729;27;87099;-60
2022/12/04 02:58:05;;;;;;;5.10;3.43;;;;;;;;;;5064057;27;87049;-60
2022/12/04 03:00:34;;;;;;;9.30;3.87;;;;;;;;;;5064250;27;86126;-60
2022/12/04 03:03:04;;;;;;;6.83;3.93;;;;;;;;;;5064062;27;89248;-60
2022/12/04 03:05:34;;;;;;;7.67;3.03;;;;;;;;;;5063895;27;87477;-60
2022/12/04 03:08:03;;;;;;;5.30;3.20;;;;;;;;;;5063437;27;87823;-61
2022/12/04 03:10:33;;;;;;;5.60;3.90;;;;;;;;;;5063333;27;86974;-60
2022/12/04 03:13:03;;;;;;;8.03;3.83;;;;;;;;;;5063624;27;88232;-61
2022/12/04 03:15:32;;;;;;;6.37;3.43;;;;;;;;;;5063700;27;88748;-60
2022/12/04 03:18:02;;;;;;;5.80;3.93;;;;;;;;;;5063440;27;87112;-60
2022/12/04 03:20:30;;;;;;;7.77;3.93;;;;;;;;;;5063256;27;86779;-60
2022/12/04 03:22:59;;;;;;;6.47;3.60;;;;;;;;;;5063183;27;88175;-60
2022/12/04 03:25:29;;;;;;;5.37;3.23;;;;;;;;;;5062708;27;87909;-60
2022/12/04 03:27:58;;;;;;;7.47;3.83;;;;;;;;;;5063405;27;86929;-60
2022/12/04 03:30:28;;;;;;;4.97;3.53;;;;;;;;;;5063457;27;87433;-60
2022/12/04 03:32:57;;;;;;;7.93;4.10;;;;;;;;;;5063183;27;88830;-61
2022/12/04 03:35:27;;;;;;;5.73;3.47;;;;;;;;;;5063249;27;88588;-60
2022/12/04 03:37:56;;;;;;;6.57;3.93;;;;;;;;;;5062555;27;86942;-60
2022/12/04 03:40:26;;;;;;;4.80;3.40;;;;;;;;;;5063729;27;86973;-60
2022/12/04 03:42:56;;;;;;;6.07;3.73;;;;;;;;;;5063486;27;88864;-60
2022/12/04 03:45:25;;;;;;;7.90;3.00;;;;;;;;;;5063237;27;88680;-60
2022/12/04 03:47:54;;;;;;;6.30;3.67;;;;;;;;;;5062453;27;88388;-60
2022/12/04 03:50:24;;;;;;;6.43;3.27;;;;;;;;;;5063151;27;86796;-60
2022/12/04 03:52:56;;;;;;;7.73;3.53;;;;;;;;;;5062470;27;87027;-61
2022/12/04 03:55:25;;;;;;;5.73;3.60;;;;;;;;;;5062944;27;87807;-60
2022/12/04 03:57:54;;;;;;;7.50;4.93;;;;;;;;;;5062601;27;87870;-60
2022/12/04 04:00:22;;;;;;;7.47;4.10;;;;;;;;;;5063209;27;87149;-60
2022/12/04 04:02:51;;;;;;;7.53;3.83;;;;;;;;;;5062881;27;89115;-60
2022/12/04 04:05:19;;;;;;;7.53;4.73;;;;;;;;;;5063207;27;87745;-60
2022/12/04 04:07:48;;;;;;;9.40;3.83;;;;;;;;;;5063170;27;87044;-61
2022/12/04 04:10:19;;;;;;;3.97;2.77;;;;;;;;;;5062726;27;86878;-60
2022/12/04 04:24:13;;;;;;;8.27;3.77;;;;;;;;;;5062320;27;87937;-61
2022/12/04 04:24:14;;;;;;;5.93;3.03;;;;;;;;;;5062387;27;89979;-60
2022/12/04 04:26:44;;;;;;;8.03;4.10;;;;;;;;;;5062187;27;88776;-60
2022/12/04 04:29:12;;;;;;;5.67;4.13;;;;;;;;;;5062466;27;86934;-60
2022/12/04 04:31:42;;;;;;;8.93;3.80;;;;;;;;;;5062910;27;87147;-61
2022/12/04 04:34:12;;;;;;;7.20;4.63;;;;;;;;;;5062502;27;87749;-60
2022/12/04 04:36:41;;;;;;;5.83;2.87;;;;;;;;;;5062337;27;86995;-61
2022/12/04 04:39:12;;;;;;;7.10;3.87;;;;;;;;;;5062949;27;87070;-60
2022/12/04 04:41:42;;;;;;;6.70;4.27;;;;;;;;;;5063030;27;86358;-61
2022/12/04 04:44:15;;;;;;;6.20;3.47;;;;;;;;;;5062474;27;89026;-60
2022/12/04 04:46:45;;;;;;;5.40;3.67;;;;;;;;;;5061127;27;88680;-61
2022/12/04 04:49:13;;;;;;;8.13;3.80;;;;;;;;;;5061239;27;87921;-61
2022/12/04 04:51:42;;;;;;;5.87;3.43;;;;;;;;;;5062283;27;87072;-61
2022/12/04 04:54:10;;;;;;;7.07;3.33;;;;;;;;;;5061876;27;88747;-60
2022/12/04 04:56:42;;;;;;;8.73;4.77;;;;;;;;;;5061989;27;87014;-60
2022/12/04 04:59:10;;;;;;;6.67;3.50;;;;;;;;;;5062285;27;87032;-60
2022/12/04 05:01:40;;;;;;;10.00;4.40;;;;;;;;;;5062349;27;86972;-61
2022/12/04 05:04:08;;;;;;;12.90;4.60;;;;;;;;;;5062486;27;88038;-61
2022/12/04 05:06:37;;;;;;;6.40;3.97;;;;;;;;;;5062742;27;86167;-60
2022/12/04 05:09:05;;;;;;;9.13;3.23;;;;;;;;;;5077180;27;86939;-60
2022/12/04 05:11:33;;;;;;;4.93;3.53;;;;;;;;;;5082558;27;87027;-60
2022/12/04 05:14:01;;;;;;;7.57;4.43;;;;;;;;;;5081975;27;88745;-60
2022/12/04 05:16:31;;;;;;;7.37;4.07;;;;;;;;;;5081738;27;87334;-61
2022/12/04 05:21:46;;;;;;;5.00;3.23;;;;;;;;;;5082417;27;86923;-61
2022/12/04 05:24:15;;;;;;;6.37;4.30;;;;;;;;;;5082125;27;88234;-60
2022/12/04 05:26:43;;;;;;;5.27;3.40;;;;;;;;;;5081663;27;87951;-60
2022/12/04 05:29:11;;;;;;;4.60;3.00;;;;;;;;;;5082179;27;86950;-60
2022/12/04 05:31:39;;;;;;;5.97;3.30;;;;;;;;;;5082175;27;86365;-60
2022/12/04 05:34:09;;;;;;;5.60;4.17;;;;;;;;;;5082086;27;88020;-60
2022/12/04 05:36:37;;;;;;;7.20;4.37;;;;;;;;;;5080675;27;87280;-60
2022/12/04 05:39:06;;;;;;;4.60;2.93;;;;;;;;;;5080517;27;88553;-60
2022/12/04 05:41:34;;;;;;;6.80;4.43;;;;;;;;;;5081811;27;87330;-61
2022/12/04 05:44:02;;;;;;;8.23;4.23;;;;;;;;;;5081966;27;89122;-60
2022/12/04 05:46:31;;;;;;;9.23;4.63;;;;;;;;;;5081090;27;88119;-61
2022/12/04 05:48:59;;;;;;;4.83;2.60;;;;;;;;;;5083247;27;87017;-60
2022/12/04 05:51:29;;;;;;;8.30;4.37;;;;;;;;;;5085066;27;87301;-61
2022/12/04 05:53:57;;;;;;;8.67;4.33;;;;;;;;;;5085168;27;87742;-60
2022/12/04 05:56:25;;;;;;;6.60;3.73;;;;;;;;;;5086232;27;87505;-60
2022/12/04 05:58:54;;;;;;;10.27;5.37;;;;;;;;;;5084682;27;87275;-60
2022/12/04 06:01:23;;;;;;;4.77;3.27;;;;;;;;;;5085554;27;87054;-60
2022/12/04 06:03:51;;;;;;;5.53;3.90;;;;;;;;;;5085336;27;88805;-60
2022/12/04 06:06:20;;;;;;;8.60;3.90;;;;;;;;;;5085214;27;89547;-60
2022/12/04 06:08:51;;;;;;;6.07;3.83;;;;;;;;;;5084840;27;86900;-60
2022/12/04 06:11:20;;;;;;;5.67;4.03;;;;;;;;;;5084796;27;86995;-60
2022/12/04 06:13:48;;;;;;;6.17;3.57;;;;;;;;;;5085061;27;89010;-61
2022/12/04 06:16:16;;;;;;;6.00;3.67;;;;;;;;;;5084942;27;87842;-60
2022/12/04 06:18:45;;;;;;;6.80;4.43;;;;;;;;;;5085174;27;86878;-60
2022/12/04 06:21:13;;;;;;;6.23;4.37;;;;;;;;;;5085191;27;86188;-60
2022/12/04 06:23:41;;;;;;;8.07;3.47;;;;;;;;;;5085250;27;88111;-60
2022/12/04 06:26:11;;;;;;;9.60;4.07;;;;;;;;;;5075356;27;88806;-61
2022/12/04 06:28:39;;;;;;;7.03;3.47;;;;;;;;;;5063915;27;87914;-60
2022/12/04 06:31:09;;;;;;;4.27;3.33;;;;;;;;;;5063561;27;87082;-61
2022/12/04 06:33:37;;;;;;;6.77;4.63;;;;;;;;;;5063985;27;88977;-61
2022/12/04 06:36:06;;;;;;;6.13;4.37;;;;;;;;;;5063599;27;88965;-60
2022/12/04 06:38:34;;;;;;;7.87;5.70;;;;;;;;;;5062839;27;87131;-60
2022/12/04 06:41:03;;;;;;;6.90;4.70;;;;;;;;;;5063576;27;86997;-60
2022/12/04 06:43:33;;;;;;;8.60;4.23;;;;;;;;;;5063802;27;87970;-60
2022/12/04 06:46:01;;;;;;;5.00;4.10;;;;;;;;;;5063311;27;87538;-60
2022/12/04 06:48:30;;;;;;;6.90;4.43;;;;;;;;;;5063852;27;87076;-60
2022/12/04 06:50:58;;;;;;;5.80;3.73;;;;;;;;;;5063361;27;87010;-60
2022/12/04 06:53:29;;;;;;;6.50;3.90;;;;;;;;;;5063524;27;89273;-61
2022/12/04 06:55:57;;;;;;;7.47;3.90;;;;;;;;;;5063894;27;89988;-61
2022/12/04 06:58:26;;;;;;;8.00;4.13;;;;;;;;;;5064036;27;89347;-60
2022/12/04 07:00:56;;;;;;;8.20;4.47;;;;;;;;;;5064416;27;87075;-61
2022/12/04 07:03:24;;;;;;;7.63;5.13;;;;;;;;;;5063817;27;89391;-60
2022/12/04 07:05:52;;;;;;;10.50;5.70;;;;;;;;;;5063040;27;87549;-61
2022/12/04 07:08:20;;;;;;;7.03;4.33;;;;;;;;;;5063494;27;87025;-61
2022/12/04 07:10:49;;;;;;;7.80;4.13;;;;;;;;;;5063666;27;86327;-60
2022/12/04 07:13:26;;;;;;;7.87;4.80;;;;;;;;;;5061914;27;86917;-60
2022/12/04 07:15:55;;;;;;;6.77;5.00;;;;;;;;;;5063250;27;87091;-61
2022/12/04 07:18:23;;;;;;;9.57;4.00;;;;;;;;;;5063417;27;87846;-60
2022/12/04 07:20:52;;;;;;;9.00;5.10;;;;;;;;;;5063007;27;86993;-60
2022/12/04 07:23:20;;;;;;;6.63;4.83;;;;;;;;;;5062862;27;87947;-61
2022/12/04 07:25:48;;;;;;;9.27;5.60;;;;;;;;;;5063519;27;88854;-61
2022/12/04 07:28:17;;;;;;;7.33;4.60;;;;;;;;;;5063269;27;87037;-60
2022/12/04 07:30:45;;;;;;;7.23;4.70;;;;;;;;;;5062789;27;87001;-60
2022/12/04 07:33:15;;;;;;;6.13;4.50;;;;;;;;;;5062499;27;89064;-61
2022/12/04 07:35:43;;;;;;;7.47;3.97;;;;;;;;;;5063451;27;88825;-59
2022/12/04 07:38:12;;;;;;;6.20;3.90;;;;;;;;;;5063619;27;87004;-61
2022/12/04 07:40:40;;;;;;;12.53;5.30;;;;;;;;;;5063128;27;86936;-60
2022/12/04 07:43:08;;;;;;;5.87;3.93;;;;;;;;;;5062876;27;90201;-61
2022/12/04 07:45:37;;;;;;;7.40;3.43;;;;;;;;;;5059863;27;89821;-60
2022/12/04 07:48:06;;;;;;;9.70;4.33;;;;;;;;;;5060792;27;87222;-60
2022/12/04 07:50:35;;;;;;;7.53;4.80;;;;;;;;;;5062296;27;87088;-60
2022/12/04 07:53:04;;;;;;;6.60;4.30;;;;;;;;;;5061237;27;89383;-60
2022/12/04 07:55:32;;;;;;;5.87;4.20;;;;;;;;;;5062118;27;88966;-60
2022/12/04 07:58:00;;;;;;;8.80;4.23;;;;;;;;;;5051481;27;86940;-61
2022/12/04 08:00:29;;;;;;;9.00;3.93;;;;;;;;;;5061176;27;86202;-60
2022/12/04 08:02:57;;;;;;;6.50;4.17;;;;;;;;;;5063369;27;87074;-61
2022/12/04 08:05:26;;;;;;;8.70;4.70;;;;;;;;;;5062094;27;88581;-60
2022/12/04 08:07:55;;;;;;;6.33;4.00;;;;;;;;;;5062045;27;87908;-60
2022/12/04 08:10:24;;;;;;;7.90;4.60;;;;;;;;;;5061284;27;87060;-60
2022/12/04 08:12:52;;;;;;;4.93;3.90;;;;;;;;;;5062177;27;88206;-61
2022/12/04 08:15:20;;;;;;;8.10;4.40;;;;;;;;;;5062112;27;88841;-60
2022/12/04 08:17:49;;;;;;;7.70;3.87;;;;;;;;;;5062665;27;86961;-60
2022/12/04 08:20:17;;;;;;;5.53;3.63;;;;;;;;;;5062345;27;86841;-61
2022/12/04 08:22:45;;;;;;;7.43;3.97;;;;;;;;;;5062492;27;88249;-60
2022/12/04 08:25:15;;;;;;;7.97;4.17;;;;;;;;;;5062348;27;87632;-60
2022/12/04 08:27:45;;;;;;;7.77;4.73;;;;;;;;;;5062345;27;86999;-60
2022/12/04 08:30:15;;;;;;;9.80;4.77;;;;;;;;;;5062386;27;87036;-60
2022/12/04 08:32:43;;;;;;;9.53;4.83;;;;;;;;;;5061748;27;88924;-61
2022/12/04 08:35:11;;;;;;;7.00;4.50;;;;;;;;;;5061541;27;89473;-60
2022/12/04 08:37:39;;;;;;;5.07;3.73;;;;;;;;;;5060974;27;87424;-60
2022/12/04 08:40:08;;;;;;;9.53;4.47;;;;;;;;;;5061375;27;87099;-61
2022/12/04 08:42:38;;;;;;;10.77;5.97;;;;;;;;;;5061653;27;88090;-60
2022/12/04 08:45:07;;;;;;;9.07;4.93;;;;;;;;;;5061962;27;87023;-61
2022/12/04 08:47:35;;;;;;;11.03;4.50;;;;;;;;;;5062041;27;86990;-60
2022/12/04 08:50:03;;;;;;;10.53;5.30;;;;;;;;;;5061655;27;86355;-61
2022/12/04 08:52:32;;;;;;;7.67;4.23;;;;;;;;;;5061326;27;89446;-60
2022/12/04 08:55:00;;;;;;;9.63;5.00;;;;;;;;;;5061032;27;87980;-60
2022/12/04 08:57:28;;;;;;;6.47;4.33;;;;;;;;;;5060903;27;88041;-61
2022/12/04 08:59:58;;;;;;;8.53;4.73;;;;;;;;;;5061598;27;87309;-60
2022/12/04 09:02:26;;;;;;;6.30;3.93;;;;;;;;;;5061529;27;88247;-60
2022/12/04 09:04:55;;;;;;;7.90;5.57;;;;;;;;;;5061568;27;87747;-61
2022/12/04 09:07:23;;;;;;;5.37;4.63;;;;;;;;;;5061538;27;87350;-61
2022/12/04 09:09:51;;;;;;;7.53;4.80;;;;;;;;;;5061031;27;87002;-61
2022/12/04 09:12:20;;;;;;;10.60;4.83;;;;;;;;;;5061087;27;88111;-62
2022/12/04 09:14:48;;;;;;;6.97;5.03;;;;;;;;;;5061191;27;88994;-61
2022/12/04 09:17:18;;;;;;;7.87;5.60;;;;;;;;;;5061753;27;86885;-61
2022/12/04 09:19:46;;;;;;;11.10;5.37;;;;;;;;;;5061379;27;86994;-60
2022/12/04 09:22:14;;;;;;;10.37;4.43;;;;;;;;;;5060397;27;88678;-61
2022/12/04 09:24:43;;;;;;;12.67;5.33;;;;;;;;;;5064873;27;89031;-62
2022/12/04 09:27:11;;;;;;;10.17;6.00;;;;;;;;;;5064806;27;87163;-61
2022/12/04 09:29:42;;;;;;;11.27;5.23;;;;;;;;;;5064312;27;87092;-60
2022/12/04 09:32:10;;;;;;;11.17;5.03;;;;;;;;;;5064888;27;87729;-61
2022/12/04 09:34:40;;;;;;;8.57;4.77;;;;;;;;;;5064124;27;88849;-62
2022/12/04 09:37:08;;;;;;;9.80;5.93;;;;;;;;;;5064219;27;87514;-61
2022/12/04 09:39:36;;;;;;;7.10;3.73;;;;;;;;;;5064742;27;86235;-61
2022/12/04 09:42:23;;;;;;;7.10;4.50;;;;;;;;;;5063507;27;87902;-61
2022/12/04 09:44:53;;;;;;;7.37;4.60;;;;;;;;;;5064242;27;87897;-61
2022/12/04 09:47:22;;;;;;;9.27;5.37;;;;;;;;;;5063609;27;88920;-62
2022/12/04 09:49:52;;;;;;;8.10;5.20;;;;;;;;;;5064091;27;87400;-61
2022/12/04 09:52:25;;;;;;;7.10;4.30;;;;;;;;;;5064447;27;88090;-61
2022/12/04 09:54:53;;;;;;;11.17;4.43;;;;;;;;;;5064354;27;88919;-61
2022/12/04 09:57:22;;;;;;;7.07;4.80;;;;;;;;;;5064818;27;87060;-61
2022/12/04 09:59:51;;;;;;;8.77;4.87;;;;;;;;;;5064459;27;87144;-60
2022/12/04 10:02:26;;;;;;;11.73;4.90;;;;;;;;;;5063853;27;88007;-61
2022/12/04 10:04:57;;;;;;;9.03;4.40;;;;;;;;;;5064406;27;89180;-60
2022/12/04 10:07:26;;;;;;;9.13;5.33;;;;;;;;;;5064856;27;86791;-61
2022/12/04 10:09:55;;;;;;;8.00;4.03;;;;;;;;;;5065087;27;86918;-61
2022/12/04 10:12:27;;;;;;;8.13;5.37;;;;;;;;;;5064188;27;88679;-61
2022/12/04 10:14:59;;;;;;;6.70;4.50;;;;;;;;;;5064823;27;88468;-61
2022/12/04 10:17:31;;;;;;;6.10;4.33;;;;;;;;;;5064628;27;86952;-61
2022/12/04 10:20:03;;;;;;;9.40;5.63;;;;;;;;;;5063168;27;86909;-61
2022/12/04 10:22:34;;;;;;;10.73;4.80;;;;;;;;;;5064157;27;89182;-60
2022/12/04 10:25:05;;;;;;;8.57;4.23;;;;;;;;;;5062556;27;88926;-61
2022/12/04 10:27:34;;;;;;;6.30;3.93;;;;;;;;;;5063675;27;87007;-60
2022/12/04 10:30:04;;;;;;;9.87;5.63;;;;;;;;;;5062922;27;86300;-61
2022/12/04 10:32:32;;;;;;;7.27;3.80;;;;;;;;;;5063358;27;86927;-61
2022/12/04 10:35:06;;;;;;;7.93;4.87;;;;;;;;;;5061356;27;88091;-60
2022/12/04 10:37:34;;;;;;;7.87;4.20;;;;;;;;;;5050990;27;88020;-60
2022/12/04 10:40:03;;;;;;;5.37;3.90;;;;;;;;;;5043500;28;86968;-60
2022/12/04 10:42:32;;;;;;;11.50;5.83;;;;;;;;;;5042299;28;87461;-60
2022/12/04 10:45:00;;;;;;;6.33;4.07;;;;;;;;;;5043831;28;87739;-60
2022/12/04 10:47:28;;;;;;;7.10;4.50;;;;;;;;;;5043545;27;87558;-60
2022/12/04 10:49:59;;;;;;;8.27;4.07;;;;;;;;;;5063698;27;86980;-60
2022/12/04 10:52:29;;;;;;;5.90;4.47;;;;;;;;;;5063739;27;89092;-61
2022/12/04 10:54:58;;;;;;;9.10;4.70;;;;;;;;;;5063906;27;87943;-60
2022/12/04 10:57:35;;;;;;;7.13;4.03;;;;;;;;;;5064262;27;87097;-61
2022/12/04 11:00:04;;;;;;;9.90;5.27;;;;;;;;;;5057724;27;86978;-60
2022/12/04 11:02:33;;;;;;;10.43;5.37;;;;;;;;;;5060813;27;87989;-61
2022/12/04 11:05:02;;;;;;;11.40;5.80;;;;;;;;;;5059761;27;88858;-60
2022/12/04 11:07:32;;;;;;;5.87;4.07;;;;;;;;;;5062153;27;86988;-60
2022/12/04 11:10:02;;;;;;;8.17;5.33;;;;;;;;;;5062452;27;87146;-60
2022/12/04 11:12:30;;;;;;;8.07;5.40;;;;;;;;;;5061524;27;88119;-60
2022/12/04 11:15:03;;;;;;;6.53;4.47;;;;;;;;;;5062702;27;87689;-60
2022/12/04 11:17:31;;;;;;;9.10;5.13;;;;;;;;;;5062505;27;87393;-60
2022/12/04 11:20:00;;;;;;;10.93;4.37;;;;;;;;;;5061663;27;86329;-60
2022/12/04 11:22:28;;;;;;;9.30;4.43;;;;;;;;;;5062055;27;88171;-60
2022/12/04 11:24:58;;;;;;;9.30;5.07;;;;;;;;;;5062349;27;87655;-59
2022/12/04 11:27:27;;;;;;;7.87;5.43;;;;;;;;;;5061163;27;88056;-60
2022/12/04 11:29:56;;;;;;;12.43;5.33;;;;;;;;;;5070938;27;87469;-60
2022/12/04 11:32:26;;;;;;;7.20;4.00;;;;;;;;;;5067765;27;88618;-61
2022/12/04 11:34:55;;;;;;;7.50;4.33;;;;;;;;;;5073431;27;87757;-61
2022/12/04 11:37:25;;;;;;;6.77;3.77;;;;;;;;;;5069213;27;87039;-60
2022/12/04 11:39:53;;;;;;;12.53;5.90;;;;;;;;;;5071347;27;87001;-59
2022/12/04 11:42:25;;;;;;;7.53;4.10;;;;;;;;;;5068793;27;89060;-60
2022/12/04 11:44:54;;;;;;;6.80;3.83;;;;;;;;;;5072009;27;88944;-60
2022/12/04 11:47:24;;;;;;;7.53;4.47;;;;;;;;;;5067479;27;86947;-61
2022/12/04 11:50:02;;;;;;;6.73;3.33;;;;;;;;;;5071566;27;86933;-60
2022/12/04 11:52:34;;;;;;;9.57;5.37;;;;;;;;;;5070376;27;90163;-61
2022/12/04 11:55:03;;;;;;;10.70;5.77;;;;;;;;;;5067717;27;88744;-60
2022/12/04 11:57:35;;;;;;;6.90;4.67;;;;;;;;;;5071901;27;86969;-60
2022/12/04 12:00:05;;;;;;;8.80;4.57;;;;;;;;;;5069253;27;87059;-60
2022/12/04 12:02:41;;;;;;;7.93;4.17;;;;;;;;;;5070743;27;88104;-60
2022/12/04 12:05:15;;;;;;;7.33;4.10;;;;;;;;;;5069096;27;87729;-60
2022/12/04 12:07:44;;;;;;;10.60;3.93;;;;;;;;;;5062021;27;87044;-60
2022/12/04 12:10:14;;;;;;;8.27;4.40;;;;;;;;;;5062179;27;86347;-60
2022/12/04 12:12:48;;;;;;;7.77;5.33;;;;;;;;;;5062058;27;88169;-60
2022/12/04 12:15:18;;;;;;;9.37;4.23;;;;;;;;;;5061759;27;87829;-59
2022/12/04 12:17:48;;;;;;;5.63;4.53;;;;;;;;;;5058976;27;87838;-60
2022/12/04 12:20:17;;;;;;;10.97;5.57;;;;;;;;;;5061685;27;86936;-60
2022/12/04 12:23:12;;;;;;;14.67;5.90;;;;;;;;;;5062273;27;87000;-61
2022/12/04 12:25:42;;;;;;;10.53;5.17;;;;;;;;;;5037082;27;87909;-60
2022/12/04 12:28:24;;;;;;;10.43;5.93;;;;;;;;;;5060256;27;87088;-60
2022/12/04 12:30:59;;;;;;;7.70;4.40;;;;;;;;;;5058786;27;87572;-59
2022/12/04 12:33:35;;;;;;;8.83;5.03;;;;;;;;;;5059991;27;88047;-61
2022/12/04 12:36:04;;;;;;;13.77;4.97;;;;;;;;;;5059982;27;86626;-60
2022/12/04 12:38:34;;;;;;;8.47;4.43;;;;;;;;;;5058759;27;87069;-60
2022/12/04 12:41:03;;;;;;;9.67;3.77;;;;;;;;;;5066101;27;87916;-60
2022/12/04 12:43:33;;;;;;;11.13;5.63;;;;;;;;;;5068757;27;90178;-61
2022/12/04 12:46:03;;;;;;;8.53;4.07;;;;;;;;;;5072095;27;87479;-60
2022/12/04 12:48:33;;;;;;;7.77;4.40;;;;;;;;;;5068408;27;87069;-60
2022/12/04 12:51:02;;;;;;;13.27;6.33;;;;;;;;;;5064062;27;87747;-60
2022/12/04 12:53:52;;;;;;;8.70;4.93;;;;;;;;;;5061699;27;87803;-60
2022/12/04 12:56:21;;;;;;;12.27;4.87;;;;;;;;;;5061960;27;87082;-60
2022/12/04 12:58:52;;;;;;;6.27;4.27;;;;;;;;;;5062153;27;87217;-60
2022/12/04 13:01:22;;;;;;;6.97;3.97;;;;;;;;;;5063000;27;86301;-60
2022/12/04 13:03:52;;;;;;;6.67;4.33;;;;;;;;;;5059498;27;88065;-60
2022/12/04 13:06:22;;;;;;;9.80;4.73;;;;;;;;;;5041388;27;87600;-60
2022/12/04 13:08:53;;;;;;;7.90;4.40;;;;;;;;;;5040994;27;87863;-60
2022/12/04 13:11:22;;;;;;;10.63;4.50;;;;;;;;;;5040722;27;87037;-61
2022/12/04 13:13:53;;;;;;;8.77;4.70;;;;;;;;;;5040679;27;87881;-61
2022/12/04 13:16:22;;;;;;;8.27;4.30;;;;;;;;;;5041391;27;87733;-60
2022/12/04 13:18:50;;;;;;;10.80;5.23;;;;;;;;;;5044968;27;86885;-60
2022/12/04 13:21:30;;;;;;;9.50;4.77;;;;;;;;;;5041306;27;86994;-60
2022/12/04 13:24:03;;;;;;;12.23;5.53;;;;;;;;;;5040581;27;88930;-60
2022/12/04 13:26:36;;;;;;;8.10;4.50;;;;;;;;;;5040961;27;87735;-59
2022/12/04 13:29:09;;;;;;;10.23;5.47;;;;;;;;;;5050092;27;87416;-60
2022/12/04 13:31:38;;;;;;;9.53;5.93;;;;;;;;;;5065470;27;87152;-60
2022/12/04 13:34:22;;;;;;;10.93;5.50;;;;;;;;;;5068094;27;91692;-60
2022/12/04 13:37:02;;;;;;;12.80;6.20;;;;;;;;;;5069890;27;88787;-60
2022/12/04 13:39:37;;;;;;;22.50;6.90;;;;;;;;;;5069148;27;87108;-60
2022/12/04 13:42:06;;;;;;;18.17;7.60;;;;;;;;;;5068971;27;87233;-60
2022/12/04 13:44:36;;;;;;;15.40;8.23;;;;;;;;;;5071209;27;88289;-60
2022/12/04 13:47:05;;;;;;;16.90;8.60;;;;;;;;;;5069935;27;87213;-60
2022/12/04 13:49:33;;;;;;;12.67;6.47;;;;;;;;;;5068017;27;87187;-60
2022/12/04 13:52:02;;;;;;;21.73;8.10;;;;;;;;;;5071010;27;86233;-60
2022/12/04 13:54:31;;;;;;;16.90;8.83;;;;;;;;;;5070298;27;87348;-60
2022/12/04 13:57:10;;;;;;;16.13;7.63;;;;;;;;;;5066128;27;88587;-60
2022/12/04 13:59:40;;;;;;;12.50;8.03;;;;;;;;;;5066243;27;87919;-60
2022/12/04 14:02:22;;;;;;;15.70;9.00;;;;;;;;;;5068427;27;86964;-59
2022/12/04 14:04:53;;;;;;;15.57;8.17;;;;;;;;;;5069059;27;88036;-60
2022/12/04 14:07:24;;;;;;;16.90;7.50;;;;;;;;;;5066422;27;89277;-60
2022/12/04 14:09:53;;;;;;;13.07;7.77;;;;;;;;;;5063060;27;87060;-60
2022/12/04 14:12:24;;;;;;;16.10;7.40;;;;;;;;;;5063079;27;86856;-60
2022/12/04 14:14:55;;;;;;;15.43;9.03;;;;;;;;;;5062723;27;89188;-60
2022/12/04 14:17:25;;;;;;;16.03;7.33;;;;;;;;;;5061508;27;87809;-60
2022/12/04 14:19:53;;;;;;;24.40;7.33;;;;;;;;;;5066191;27;87038;-60
2022/12/04 14:22:26;;;;;;;12.20;6.73;;;;;;;;;;5060763;27;87081;-60
2022/12/04 14:24:54;;;;;;;10.40;6.47;;;;;;;;;;5062094;27;89202;-60
2022/12/04 14:27:32;;;;;;;14.90;7.37;;;;;;;;;;5064051;27;88705;-60
2022/12/04 14:30:02;;;;;;;16.27;6.20;;;;;;;;;;5063520;27;87018;-60
2022/12/04 14:32:32;;;;;;;14.03;7.17;;;;;;;;;;5064729;27;87022;-60
2022/12/04 14:35:00;;;;;;;14.70;6.97;;;;;;;;;;5064210;27;88077;-54
2022/12/04 14:37:29;;;;;;;10.43;6.33;;;;;;;;;;5063068;27;88750;-54
2022/12/04 14:39:58;;;;;;;10.70;6.83;;;;;;;;;;5063851;27;87065;-54
2022/12/04 14:42:26;;;;;;;9.07;5.30;;;;;;;;;;5063876;27;86709;-54
2022/12/04 14:44:55;;;;;;;10.83;6.90;;;;;;;;;;5062584;27;88099;-55
2022/12/04 14:47:42;;;;;;;10.70;5.73;;;;;;;;;;5061980;27;89027;-54
2022/12/04 14:50:15;;;;;;;8.30;4.73;;;;;;;;;;5062009;27;88347;-54
2022/12/04 14:52:44;;;;;;;10.93;5.37;;;;;;;;;;5063309;27;87060;-54
2022/12/04 14:55:15;;;;;;;8.23;4.33;;;;;;;;;;5062696;27;87875;-54
2022/12/04 14:57:45;;;;;;;12.90;5.67;;;;;;;;;;5063301;27;88817;-54
2022/12/04 15:00:15;;;;;;;11.37;6.17;;;;;;;;;;5062469;27;87003;-54
2022/12/04 15:02:44;;;;;;;12.07;6.17;;;;;;;;;;5062855;27;87096;-54
2022/12/04 15:05:12;;;;;;;8.00;3.97;;;;;;;;;;5063430;27;88961;-54
2022/12/04 15:07:46;;;;;;;12.10;4.00;;;;;;;;;;5062874;27;89011;-54